Camborne, United Kingdom
Current Conditions -  °F | °C
As of 11:50 AM on Wednesday 28 Jan 2015 (Local Time) from EGDR Reporting Station
Rain Showers Rain Showers  
Wind Chill: 37°   Ceiling: 5000
Heat Index: 46°   Visibility: 6mi
Dew Point: 37°   Wind: 29mph
Humidity: 71%   Direction: 290°WNW
Pressure: 29.85"   Gusts: 49mph
Location:  50.21°N, 5.3°W
Report Text: EGDR 281150Z 29025G43KT 9999 VCSH FEW018 SCT022 OVC050 08/03 Q1011 WHT TEMPO 4000 SHRA SCT009 BKN015TCU GRN
Loading
Personal Weather Stations






























Interactive Weather Map New forecast layout! Learn more

10-Day Weather Forecast

Advertisements
Track Severe Weather on mobile